sensor_id;sensor_type;location;lat;lon;timestamp;P1;durP1;ratioP1;P2;durP2;ratioP2
75191;SDS011;63771;52.580;9.734;2024-02-21T00:02:23;22.63;;;11.87;;
75191;SDS011;63771;52.580;9.734;2024-02-21T00:04:49;17.92;;;9.50;;
75191;SDS011;63771;52.580;9.734;2024-02-21T00:07:14;18.30;;;9.57;;
75191;SDS011;63771;52.580;9.734;2024-02-21T00:09:39;16.33;;;9.98;;
75191;SDS011;63771;52.580;9.734;2024-02-21T00:12:05;21.13;;;10.40;;
75191;SDS011;63771;52.580;9.734;2024-02-21T00:14:31;20.30;;;10.40;;
75191;SDS011;63771;52.580;9.734;2024-02-21T00:16:56;17.92;;;9.77;;
75191;SDS011;63771;52.580;9.734;2024-02-21T00:19:21;20.23;;;10.77;;
75191;SDS011;63771;52.580;9.734;2024-02-21T00:21:46;19.50;;;9.30;;
75191;SDS011;63771;52.580;9.734;2024-02-21T00:24:12;19.13;;;10.40;;
75191;SDS011;63771;52.580;9.734;2024-02-21T00:26:38;18.38;;;10.80;;
75191;SDS011;63771;52.580;9.734;2024-02-21T00:29:03;20.92;;;11.63;;
75191;SDS011;63771;52.580;9.734;2024-02-21T00:31:28;23.25;;;10.60;;
75191;SDS011;63771;52.580;9.734;2024-02-21T00:33:54;24.73;;;11.60;;
75191;SDS011;63771;52.580;9.734;2024-02-21T00:36:19;19.90;;;10.77;;
75191;SDS011;63771;52.580;9.734;2024-02-21T00:38:44;20.27;;;10.60;;
75191;SDS011;63771;52.580;9.734;2024-02-21T00:41:10;20.57;;;10.50;;
75191;SDS011;63771;52.580;9.734;2024-02-21T00:43:35;22.37;;;11.07;;
75191;SDS011;63771;52.580;9.734;2024-02-21T00:46:00;21.40;;;11.20;;
75191;SDS011;63771;52.580;9.734;2024-02-21T00:48:25;19.23;;;12.00;;
75191;SDS011;63771;52.580;9.734;2024-02-21T00:50:51;21.03;;;10.77;;
75191;SDS011;63771;52.580;9.734;2024-02-21T00:53:16;18.75;;;12.63;;
75191;SDS011;63771;52.580;9.734;2024-02-21T00:55:42;18.85;;;11.65;;
75191;SDS011;63771;52.580;9.734;2024-02-21T00:58:08;23.02;;;12.65;;
75191;SDS011;63771;52.580;9.734;2024-02-21T01:00:33;18.45;;;11.20;;
75191;SDS011;63771;52.580;9.734;2024-02-21T01:02:59;21.27;;;12.33;;
75191;SDS011;63771;52.580;9.734;2024-02-21T01:05:24;14.17;;;10.27;;
75191;SDS011;63771;52.580;9.734;2024-02-21T01:07:49;23.97;;;12.17;;
75191;SDS011;63771;52.580;9.734;2024-02-21T01:10:15;28.13;;;11.73;;
75191;SDS011;63771;52.580;9.734;2024-02-21T01:12:40;17.27;;;11.20;;
75191;SDS011;63771;52.580;9.734;2024-02-21T01:15:05;24.37;;;12.00;;
75191;SDS011;63771;52.580;9.734;2024-02-21T01:17:31;22.52;;;12.18;;
75191;SDS011;63771;52.580;9.734;2024-02-21T01:19:56;24.17;;;12.20;;
75191;SDS011;63771;52.580;9.734;2024-02-21T01:22:21;26.93;;;12.40;;
75191;SDS011;63771;52.580;9.734;2024-02-21T01:24:47;24.47;;;12.13;;
75191;SDS011;63771;52.580;9.734;2024-02-21T01:27:12;21.43;;;11.87;;
75191;SDS011;63771;52.580;9.734;2024-02-21T01:29:37;19.90;;;11.60;;
75191;SDS011;63771;52.580;9.734;2024-02-21T01:32:03;19.10;;;12.00;;
75191;SDS011;63771;52.580;9.734;2024-02-21T01:34:28;21.55;;;11.75;;
75191;SDS011;63771;52.580;9.734;2024-02-21T01:36:53;22.70;;;11.33;;
75191;SDS011;63771;52.580;9.734;2024-02-21T01:39:19;26.07;;;13.87;;
75191;SDS011;63771;52.580;9.734;2024-02-21T01:41:44;21.40;;;12.17;;
75191;SDS011;63771;52.580;9.734;2024-02-21T01:44:09;20.73;;;12.43;;
75191;SDS011;63771;52.580;9.734;2024-02-21T01:46:35;27.23;;;12.10;;
75191;SDS011;63771;52.580;9.734;2024-02-21T01:49:00;19.25;;;11.45;;
75191;SDS011;63771;52.580;9.734;2024-02-21T01:51:26;21.70;;;12.73;;
75191;SDS011;63771;52.580;9.734;2024-02-21T01:53:52;23.13;;;12.75;;
75191;SDS011;63771;52.580;9.734;2024-02-21T01:56:20;26.45;;;12.45;;
75191;SDS011;63771;52.580;9.734;2024-02-21T01:58:46;23.13;;;12.65;;
75191;SDS011;63771;52.580;9.734;2024-02-21T02:01:13;25.17;;;13.30;;
75191;SDS011;63771;52.580;9.734;2024-02-21T02:03:38;24.17;;;11.75;;
75191;SDS011;63771;52.580;9.734;2024-02-21T02:06:07;20.10;;;11.85;;
75191;SDS011;63771;52.580;9.734;2024-02-21T02:08:33;24.42;;;12.05;;
75191;SDS011;63771;52.580;9.734;2024-02-21T02:10:58;22.92;;;14.20;;
75191;SDS011;63771;52.580;9.734;2024-02-21T02:13:24;22.02;;;13.05;;
75191;SDS011;63771;52.580;9.734;2024-02-21T02:15:49;17.95;;;11.05;;
75191;SDS011;63771;52.580;9.734;2024-02-21T02:18:15;19.73;;;12.98;;
75191;SDS011;63771;52.580;9.734;2024-02-21T02:20:42;22.02;;;12.48;;
75191;SDS011;63771;52.580;9.734;2024-02-21T02:25:50;22.60;;;12.25;;
75191;SDS011;63771;52.580;9.734;2024-02-21T02:28:19;28.27;;;13.52;;
75191;SDS011;63771;52.580;9.734;2024-02-21T02:30:44;21.23;;;11.57;;
75191;SDS011;63771;52.580;9.734;2024-02-21T02:33:10;19.92;;;13.70;;
75191;SDS011;63771;52.580;9.734;2024-02-21T02:35:35;27.87;;;12.67;;
75191;SDS011;63771;52.580;9.734;2024-02-21T02:38:01;22.27;;;11.65;;
75191;SDS011;63771;52.580;9.734;2024-02-21T02:40:27;25.33;;;14.48;;
75191;SDS011;63771;52.580;9.734;2024-02-21T02:42:53;21.88;;;13.05;;
75191;SDS011;63771;52.580;9.734;2024-02-21T02:45:20;23.05;;;13.15;;
75191;SDS011;63771;52.580;9.734;2024-02-21T02:47:47;19.52;;;12.38;;
75191;SDS011;63771;52.580;9.734;2024-02-21T02:50:13;21.13;;;13.00;;
75191;SDS011;63771;52.580;9.734;2024-02-21T02:52:39;21.75;;;11.82;;
75191;SDS011;63771;52.580;9.734;2024-02-21T02:55:04;22.52;;;14.13;;
75191;SDS011;63771;52.580;9.734;2024-02-21T02:57:30;18.10;;;11.00;;
75191;SDS011;63771;52.580;9.734;2024-02-21T02:59:56;17.20;;;11.63;;
75191;SDS011;63771;52.580;9.734;2024-02-21T03:02:21;18.93;;;11.27;;
75191;SDS011;63771;52.580;9.734;2024-02-21T03:04:47;20.38;;;11.25;;
75191;SDS011;63771;52.580;9.734;2024-02-21T03:07:13;20.50;;;11.73;;
75191;SDS011;63771;52.580;9.734;2024-02-21T03:09:39;21.50;;;11.75;;
75191;SDS011;63771;52.580;9.734;2024-02-21T03:12:05;18.08;;;12.15;;
75191;SDS011;63771;52.580;9.734;2024-02-21T03:14:31;19.27;;;12.75;;
75191;SDS011;63771;52.580;9.734;2024-02-21T03:16:57;21.08;;;12.75;;
75191;SDS011;63771;52.580;9.734;2024-02-21T03:19:24;21.05;;;12.88;;
75191;SDS011;63771;52.580;9.734;2024-02-21T03:21:50;21.13;;;12.02;;
75191;SDS011;63771;52.580;9.734;2024-02-21T03:24:16;20.38;;;13.25;;
75191;SDS011;63771;52.580;9.734;2024-02-21T03:26:41;20.67;;;12.45;;
75191;SDS011;63771;52.580;9.734;2024-02-21T03:29:07;22.77;;;11.80;;
75191;SDS011;63771;52.580;9.734;2024-02-21T03:31:33;24.75;;;11.63;;
75191;SDS011;63771;52.580;9.734;2024-02-21T03:33:59;25.23;;;12.60;;
75191;SDS011;63771;52.580;9.734;2024-02-21T03:36:24;19.27;;;10.87;;
75191;SDS011;63771;52.580;9.734;2024-02-21T03:38:49;25.60;;;12.60;;
75191;SDS011;63771;52.580;9.734;2024-02-21T03:41:14;22.27;;;12.40;;
75191;SDS011;63771;52.580;9.734;2024-02-21T03:43:40;20.17;;;10.53;;
75191;SDS011;63771;52.580;9.734;2024-02-21T03:46:05;20.37;;;11.77;;
75191;SDS011;63771;52.580;9.734;2024-02-21T03:48:31;17.75;;;10.77;;
75191;SDS011;63771;52.580;9.734;2024-02-21T03:50:57;17.20;;;10.90;;
75191;SDS011;63771;52.580;9.734;2024-02-21T03:53:23;20.52;;;11.45;;
75191;SDS011;63771;52.580;9.734;2024-02-21T03:55:48;16.87;;;11.53;;
75191;SDS011;63771;52.580;9.734;2024-02-21T03:58:13;20.63;;;11.77;;
75191;SDS011;63771;52.580;9.734;2024-02-21T04:00:39;17.63;;;11.40;;
75191;SDS011;63771;52.580;9.734;2024-02-21T04:03:04;16.33;;;11.13;;
75191;SDS011;63771;52.580;9.734;2024-02-21T04:05:31;19.98;;;11.27;;
75191;SDS011;63771;52.580;9.734;2024-02-21T04:07:56;16.53;;;11.77;;
75191;SDS011;63771;52.580;9.734;2024-02-21T04:10:22;18.20;;;12.07;;
75191;SDS011;63771;52.580;9.734;2024-02-21T04:12:47;24.17;;;13.03;;
75191;SDS011;63771;52.580;9.734;2024-02-21T04:15:15;23.42;;;11.52;;
75191;SDS011;63771;52.580;9.734;2024-02-21T04:17:41;26.10;;;12.35;;
75191;SDS011;63771;52.580;9.734;2024-02-21T04:20:06;24.13;;;12.00;;
75191;SDS011;63771;52.580;9.734;2024-02-21T04:22:39;17.10;;;12.68;;
75191;SDS011;63771;52.580;9.734;2024-02-21T04:25:04;21.00;;;11.87;;
75191;SDS011;63771;52.580;9.734;2024-02-21T04:27:30;22.77;;;11.77;;
75191;SDS011;63771;52.580;9.734;2024-02-21T04:29:55;24.87;;;13.27;;
75191;SDS011;63771;52.580;9.734;2024-02-21T04:32:21;17.43;;;11.83;;
75191;SDS011;63771;52.580;9.734;2024-02-21T04:34:46;20.83;;;12.10;;
75191;SDS011;63771;52.580;9.734;2024-02-21T04:37:11;22.40;;;12.83;;
75191;SDS011;63771;52.580;9.734;2024-02-21T04:39:37;23.60;;;13.57;;
75191;SDS011;63771;52.580;9.734;2024-02-21T04:42:02;24.20;;;11.90;;
75191;SDS011;63771;52.580;9.734;2024-02-21T04:44:27;28.40;;;12.40;;
75191;SDS011;63771;52.580;9.734;2024-02-21T04:46:53;23.57;;;13.17;;
75191;SDS011;63771;52.580;9.734;2024-02-21T04:49:18;19.77;;;12.10;;
75191;SDS011;63771;52.580;9.734;2024-02-21T04:51:43;22.23;;;12.45;;
75191;SDS011;63771;52.580;9.734;2024-02-21T04:54:09;22.58;;;12.82;;
75191;SDS011;63771;52.580;9.734;2024-02-21T04:56:34;22.53;;;14.90;;
75191;SDS011;63771;52.580;9.734;2024-02-21T04:58:59;23.13;;;14.32;;
75191;SDS011;63771;52.580;9.734;2024-02-21T05:01:25;23.08;;;13.05;;
75191;SDS011;63771;52.580;9.734;2024-02-21T05:03:50;19.73;;;13.20;;
75191;SDS011;63771;52.580;9.734;2024-02-21T05:06:15;24.30;;;12.60;;
75191;SDS011;63771;52.580;9.734;2024-02-21T05:08:41;25.20;;;15.30;;
75191;SDS011;63771;52.580;9.734;2024-02-21T05:11:07;28.58;;;13.95;;
75191;SDS011;63771;52.580;9.734;2024-02-21T05:13:32;26.57;;;13.30;;
75191;SDS011;63771;52.580;9.734;2024-02-21T05:15:57;24.13;;;13.73;;
75191;SDS011;63771;52.580;9.734;2024-02-21T05:18:26;33.25;;;15.45;;
75191;SDS011;63771;52.580;9.734;2024-02-21T05:20:52;27.83;;;15.00;;
75191;SDS011;63771;52.580;9.734;2024-02-21T05:23:17;29.67;;;14.90;;
75191;SDS011;63771;52.580;9.734;2024-02-21T05:25:42;27.63;;;15.17;;
75191;SDS011;63771;52.580;9.734;2024-02-21T05:28:08;22.33;;;14.67;;
75191;SDS011;63771;52.580;9.734;2024-02-21T05:30:33;28.95;;;15.20;;
75191;SDS011;63771;52.580;9.734;2024-02-21T05:32:58;24.67;;;14.75;;
75191;SDS011;63771;52.580;9.734;2024-02-21T05:35:27;26.97;;;15.23;;
75191;SDS011;63771;52.580;9.734;2024-02-21T05:37:53;28.02;;;16.10;;
75191;SDS011;63771;52.580;9.734;2024-02-21T05:40:18;22.03;;;14.33;;
75191;SDS011;63771;52.580;9.734;2024-02-21T05:42:44;25.53;;;15.67;;
75191;SDS011;63771;52.580;9.734;2024-02-21T05:45:09;27.65;;;16.83;;
75191;SDS011;63771;52.580;9.734;2024-02-21T05:47:36;27.88;;;14.85;;
75191;SDS011;63771;52.580;9.734;2024-02-21T05:50:01;27.20;;;14.25;;
75191;SDS011;63771;52.580;9.734;2024-02-21T05:52:27;30.73;;;15.18;;
75191;SDS011;63771;52.580;9.734;2024-02-21T05:54:52;28.15;;;16.20;;
75191;SDS011;63771;52.580;9.734;2024-02-21T05:57:18;28.20;;;14.02;;
75191;SDS011;63771;52.580;9.734;2024-02-21T05:59:43;32.30;;;15.05;;
75191;SDS011;63771;52.580;9.734;2024-02-21T06:02:09;25.47;;;15.67;;
75191;SDS011;63771;52.580;9.734;2024-02-21T06:04:34;31.90;;;15.65;;
75191;SDS011;63771;52.580;9.734;2024-02-21T06:07:00;29.58;;;14.35;;
75191;SDS011;63771;52.580;9.734;2024-02-21T06:09:26;31.80;;;15.25;;
75191;SDS011;63771;52.580;9.734;2024-02-21T06:11:51;25.17;;;14.90;;
75191;SDS011;63771;52.580;9.734;2024-02-21T06:14:17;26.23;;;15.07;;
75191;SDS011;63771;52.580;9.734;2024-02-21T06:16:43;28.95;;;17.02;;
75191;SDS011;63771;52.580;9.734;2024-02-21T06:19:09;22.88;;;14.32;;
75191;SDS011;63771;52.580;9.734;2024-02-21T06:21:34;27.93;;;17.07;;
75191;SDS011;63771;52.580;9.734;2024-02-21T06:23:59;25.15;;;15.57;;
75191;SDS011;63771;52.580;9.734;2024-02-21T06:26:25;27.00;;;16.00;;
75191;SDS011;63771;52.580;9.734;2024-02-21T06:28:50;26.55;;;16.67;;
75191;SDS011;63771;52.580;9.734;2024-02-21T06:31:16;27.13;;;13.90;;
75191;SDS011;63771;52.580;9.734;2024-02-21T06:33:41;27.27;;;15.43;;
75191;SDS011;63771;52.580;9.734;2024-02-21T06:36:07;26.73;;;17.05;;
75191;SDS011;63771;52.580;9.734;2024-02-21T06:38:32;31.25;;;16.27;;
75191;SDS011;63771;52.580;9.734;2024-02-21T06:40:59;23.65;;;13.48;;
75191;SDS011;63771;52.580;9.734;2024-02-21T06:43:25;28.55;;;16.08;;
75191;SDS011;63771;52.580;9.734;2024-02-21T06:45:51;25.77;;;15.23;;
75191;SDS011;63771;52.580;9.734;2024-02-21T06:48:16;28.55;;;15.50;;
75191;SDS011;63771;52.580;9.734;2024-02-21T06:50:43;27.40;;;16.17;;
75191;SDS011;63771;52.580;9.734;2024-02-21T06:53:08;27.23;;;15.73;;
75191;SDS011;63771;52.580;9.734;2024-02-21T06:55:34;24.00;;;14.07;;
75191;SDS011;63771;52.580;9.734;2024-02-21T06:58:00;28.10;;;15.57;;
75191;SDS011;63771;52.580;9.734;2024-02-21T07:00:25;24.02;;;13.77;;
75191;SDS011;63771;52.580;9.734;2024-02-21T07:02:51;21.38;;;13.88;;
75191;SDS011;63771;52.580;9.734;2024-02-21T07:05:16;30.23;;;15.27;;
75191;SDS011;63771;52.580;9.734;2024-02-21T07:07:42;22.33;;;13.27;;
75191;SDS011;63771;52.580;9.734;2024-02-21T07:10:07;25.67;;;14.83;;
75191;SDS011;63771;52.580;9.734;2024-02-21T07:12:33;28.50;;;13.77;;
75191;SDS011;63771;52.580;9.734;2024-02-21T07:14:58;24.58;;;14.13;;
75191;SDS011;63771;52.580;9.734;2024-02-21T07:17:24;22.07;;;12.53;;
75191;SDS011;63771;52.580;9.734;2024-02-21T07:19:49;25.17;;;12.93;;
75191;SDS011;63771;52.580;9.734;2024-02-21T07:22:14;23.30;;;13.97;;
75191;SDS011;63771;52.580;9.734;2024-02-21T07:24:39;27.03;;;14.53;;
75191;SDS011;63771;52.580;9.734;2024-02-21T07:27:05;22.53;;;13.83;;
75191;SDS011;63771;52.580;9.734;2024-02-21T07:29:30;17.23;;;12.90;;
75191;SDS011;63771;52.580;9.734;2024-02-21T07:31:56;20.75;;;13.45;;
75191;SDS011;63771;52.580;9.734;2024-02-21T07:34:21;22.97;;;14.10;;
75191;SDS011;63771;52.580;9.734;2024-02-21T07:36:46;25.00;;;14.20;;
75191;SDS011;63771;52.580;9.734;2024-02-21T07:39:11;26.93;;;13.03;;
75191;SDS011;63771;52.580;9.734;2024-02-21T07:41:37;29.88;;;14.30;;
75191;SDS011;63771;52.580;9.734;2024-02-21T07:44:04;21.13;;;13.32;;
75191;SDS011;63771;52.580;9.734;2024-02-21T07:46:30;21.30;;;13.90;;
75191;SDS011;63771;52.580;9.734;2024-02-21T07:48:55;19.17;;;13.25;;
75191;SDS011;63771;52.580;9.734;2024-02-21T07:51:20;27.92;;;15.13;;
75191;SDS011;63771;52.580;9.734;2024-02-21T07:53:46;24.27;;;14.27;;
75191;SDS011;63771;52.580;9.734;2024-02-21T07:56:12;23.90;;;13.63;;
75191;SDS011;63771;52.580;9.734;2024-02-21T07:58:38;20.73;;;13.00;;
75191;SDS011;63771;52.580;9.734;2024-02-21T08:01:04;21.38;;;13.43;;
75191;SDS011;63771;52.580;9.734;2024-02-21T08:03:30;21.97;;;13.20;;
75191;SDS011;63771;52.580;9.734;2024-02-21T08:05:55;20.63;;;12.35;;
75191;SDS011;63771;52.580;9.734;2024-02-21T08:08:20;24.77;;;13.70;;
75191;SDS011;63771;52.580;9.734;2024-02-21T08:10:47;21.40;;;12.85;;
75191;SDS011;63771;52.580;9.734;2024-02-21T08:13:13;21.70;;;12.38;;
75191;SDS011;63771;52.580;9.734;2024-02-21T08:15:38;15.50;;;12.00;;
75191;SDS011;63771;52.580;9.734;2024-02-21T08:18:05;22.02;;;13.80;;
75191;SDS011;63771;52.580;9.734;2024-02-21T08:20:30;21.58;;;13.80;;
75191;SDS011;63771;52.580;9.734;2024-02-21T08:22:55;18.17;;;11.83;;
75191;SDS011;63771;52.580;9.734;2024-02-21T08:25:21;18.23;;;11.13;;
75191;SDS011;63771;52.580;9.734;2024-02-21T08:27:46;21.23;;;11.68;;
75191;SDS011;63771;52.580;9.734;2024-02-21T08:30:11;18.67;;;11.47;;
75191;SDS011;63771;52.580;9.734;2024-02-21T08:32:37;17.45;;;11.68;;
75191;SDS011;63771;52.580;9.734;2024-02-21T08:35:02;18.40;;;10.43;;
75191;SDS011;63771;52.580;9.734;2024-02-21T08:37:30;16.35;;;11.10;;
75191;SDS011;63771;52.580;9.734;2024-02-21T08:39:55;22.15;;;12.13;;
75191;SDS011;63771;52.580;9.734;2024-02-21T08:42:21;19.47;;;12.63;;
75191;SDS011;63771;52.580;9.734;2024-02-21T08:44:46;22.08;;;12.52;;
75191;SDS011;63771;52.580;9.734;2024-02-21T08:47:11;18.03;;;12.43;;
75191;SDS011;63771;52.580;9.734;2024-02-21T08:49:37;17.17;;;12.48;;
75191;SDS011;63771;52.580;9.734;2024-02-21T08:52:03;18.38;;;12.75;;
75191;SDS011;63771;52.580;9.734;2024-02-21T08:54:29;18.50;;;11.95;;
75191;SDS011;63771;52.580;9.734;2024-02-21T08:56:54;20.17;;;11.70;;
75191;SDS011;63771;52.580;9.734;2024-02-21T08:59:19;19.60;;;12.85;;
75191;SDS011;63771;52.580;9.734;2024-02-21T09:01:45;21.67;;;12.50;;
75191;SDS011;63771;52.580;9.734;2024-02-21T09:04:11;18.48;;;12.45;;
75191;SDS011;63771;52.580;9.734;2024-02-21T09:06:36;21.63;;;12.40;;
75191;SDS011;63771;52.580;9.734;2024-02-21T09:09:04;20.77;;;12.10;;
75191;SDS011;63771;52.580;9.734;2024-02-21T09:11:29;17.73;;;12.27;;
75191;SDS011;63771;52.580;9.734;2024-02-21T09:13:55;22.70;;;12.98;;
75191;SDS011;63771;52.580;9.734;2024-02-21T09:16:21;20.27;;;11.77;;
75191;SDS011;63771;52.580;9.734;2024-02-21T09:18:47;17.35;;;12.18;;
75191;SDS011;63771;52.580;9.734;2024-02-21T09:21:12;18.13;;;12.70;;
75191;SDS011;63771;52.580;9.734;2024-02-21T09:23:37;23.03;;;12.17;;
75191;SDS011;63771;52.580;9.734;2024-02-21T09:26:02;18.07;;;11.37;;
75191;SDS011;63771;52.580;9.734;2024-02-21T09:28:29;18.15;;;11.38;;
75191;SDS011;63771;52.580;9.734;2024-02-21T09:30:55;20.40;;;10.18;;
75191;SDS011;63771;52.580;9.734;2024-02-21T09:33:20;14.97;;;10.00;;
75191;SDS011;63771;52.580;9.734;2024-02-21T09:35:45;15.73;;;10.20;;
75191;SDS011;63771;52.580;9.734;2024-02-21T09:38:12;18.90;;;10.48;;
75191;SDS011;63771;52.580;9.734;2024-02-21T09:40:38;16.02;;;9.85;;
75191;SDS011;63771;52.580;9.734;2024-02-21T09:43:04;19.20;;;9.40;;
75191;SDS011;63771;52.580;9.734;2024-02-21T09:45:33;13.75;;;8.52;;
75191;SDS011;63771;52.580;9.734;2024-02-21T09:51:07;14.30;;;8.20;;
75191;SDS011;63771;52.580;9.734;2024-02-21T09:53:35;13.70;;;8.93;;
75191;SDS011;63771;52.580;9.734;2024-02-21T09:56:03;13.45;;;7.57;;
75191;SDS011;63771;52.580;9.734;2024-02-21T09:58:30;13.18;;;7.57;;
75191;SDS011;63771;52.580;9.734;2024-02-21T10:00:55;10.07;;;6.70;;
75191;SDS011;63771;52.580;9.734;2024-02-21T10:03:22;12.75;;;6.72;;
75191;SDS011;63771;52.580;9.734;2024-02-21T10:05:48;10.67;;;7.10;;
75191;SDS011;63771;52.580;9.734;2024-02-21T10:08:17;14.30;;;6.82;;
75191;SDS011;63771;52.580;9.734;2024-02-21T10:10:44;10.25;;;6.72;;
75191;SDS011;63771;52.580;9.734;2024-02-21T10:13:11;14.68;;;7.65;;
75191;SDS011;63771;52.580;9.734;2024-02-21T10:15:49;15.13;;;7.25;;
75191;SDS011;63771;52.580;9.734;2024-02-21T10:18:24;10.48;;;6.45;;
75191;SDS011;63771;52.580;9.734;2024-02-21T10:20:59;10.38;;;6.90;;
75191;SDS011;63771;52.580;9.734;2024-02-21T10:23:25;12.05;;;6.20;;
75191;SDS011;63771;52.580;9.734;2024-02-21T10:25:51;12.77;;;5.87;;
75191;SDS011;63771;52.580;9.734;2024-02-21T10:28:16;7.82;;;4.95;;
75191;SDS011;63771;52.580;9.734;2024-02-21T10:30:49;7.40;;;5.43;;
75191;SDS011;63771;52.580;9.734;2024-02-21T10:33:17;8.70;;;4.95;;
75191;SDS011;63771;52.580;9.734;2024-02-21T10:35:45;8.95;;;5.55;;
75191;SDS011;63771;52.580;9.734;2024-02-21T10:38:11;5.82;;;4.60;;
75191;SDS011;63771;52.580;9.734;2024-02-21T10:40:37;8.83;;;5.53;;
75191;SDS011;63771;52.580;9.734;2024-02-21T10:43:02;9.13;;;5.40;;
75191;SDS011;63771;52.580;9.734;2024-02-21T10:45:35;10.73;;;5.38;;
75191;SDS011;63771;52.580;9.734;2024-02-21T10:48:22;6.95;;;4.82;;
75191;SDS011;63771;52.580;9.734;2024-02-21T10:56:06;9.18;;;4.57;;
75191;SDS011;63771;52.580;9.734;2024-02-21T10:58:46;9.30;;;5.00;;
75191;SDS011;63771;52.580;9.734;2024-02-21T11:01:13;11.25;;;4.97;;
75191;SDS011;63771;52.580;9.734;2024-02-21T11:03:40;6.70;;;4.13;;
75191;SDS011;63771;52.580;9.734;2024-02-21T11:06:08;6.03;;;5.18;;
75191;SDS011;63771;52.580;9.734;2024-02-21T11:08:35;10.02;;;4.78;;
75191;SDS011;63771;52.580;9.734;2024-02-21T11:11:01;5.03;;;3.70;;
75191;SDS011;63771;52.580;9.734;2024-02-21T11:13:35;8.13;;;4.07;;
75191;SDS011;63771;52.580;9.734;2024-02-21T11:16:08;8.45;;;4.30;;
75191;SDS011;63771;52.580;9.734;2024-02-21T11:18:37;6.22;;;4.32;;
75191;SDS011;63771;52.580;9.734;2024-02-21T11:21:03;7.85;;;4.28;;
75191;SDS011;63771;52.580;9.734;2024-02-21T11:23:31;10.43;;;4.47;;
75191;SDS011;63771;52.580;9.734;2024-02-21T11:28:32;6.60;;;3.58;;
75191;SDS011;63771;52.580;9.734;2024-02-21T11:31:07;4.50;;;3.83;;
75191;SDS011;63771;52.580;9.734;2024-02-21T11:33:34;6.30;;;3.40;;
75191;SDS011;63771;52.580;9.734;2024-02-21T11:36:00;6.55;;;3.30;;
75191;SDS011;63771;52.580;9.734;2024-02-21T11:38:25;7.50;;;3.75;;
75191;SDS011;63771;52.580;9.734;2024-02-21T11:40:51;7.07;;;3.67;;
75191;SDS011;63771;52.580;9.734;2024-02-21T11:43:16;7.20;;;2.88;;
75191;SDS011;63771;52.580;9.734;2024-02-21T11:45:42;5.03;;;3.10;;
75191;SDS011;63771;52.580;9.734;2024-02-21T11:48:07;6.03;;;3.65;;
75191;SDS011;63771;52.580;9.734;2024-02-21T11:50:34;5.78;;;2.53;;
75191;SDS011;63771;52.580;9.734;2024-02-21T11:53:01;6.40;;;3.85;;
75191;SDS011;63771;52.580;9.734;2024-02-21T11:55:27;6.35;;;3.47;;
75191;SDS011;63771;52.580;9.734;2024-02-21T11:57:53;6.28;;;3.13;;
75191;SDS011;63771;52.580;9.734;2024-02-21T12:00:18;3.80;;;2.77;;
75191;SDS011;63771;52.580;9.734;2024-02-21T12:02:49;5.30;;;2.97;;
75191;SDS011;63771;52.580;9.734;2024-02-21T12:05:15;5.03;;;2.80;;
75191;SDS011;63771;52.580;9.734;2024-02-21T12:07:40;3.38;;;2.88;;
75191;SDS011;63771;52.580;9.734;2024-02-21T12:10:12;4.85;;;2.70;;
75191;SDS011;63771;52.580;9.734;2024-02-21T12:12:39;8.35;;;3.13;;
75191;SDS011;63771;52.580;9.734;2024-02-21T12:15:05;2.85;;;2.38;;
75191;SDS011;63771;52.580;9.734;2024-02-21T12:17:34;4.40;;;3.10;;
75191;SDS011;63771;52.580;9.734;2024-02-21T12:20:04;6.60;;;3.42;;
75191;SDS011;63771;52.580;9.734;2024-02-21T12:22:34;3.25;;;2.95;;
75191;SDS011;63771;52.580;9.734;2024-02-21T12:25:02;4.75;;;3.13;;
75191;SDS011;63771;52.580;9.734;2024-02-21T12:27:29;5.68;;;2.88;;
75191;SDS011;63771;52.580;9.734;2024-02-21T12:29:54;3.33;;;2.42;;
75191;SDS011;63771;52.580;9.734;2024-02-21T12:32:20;4.40;;;2.60;;
75191;SDS011;63771;52.580;9.734;2024-02-21T12:34:45;5.07;;;3.05;;
75191;SDS011;63771;52.580;9.734;2024-02-21T12:37:10;2.70;;;2.00;;
75191;SDS011;63771;52.580;9.734;2024-02-21T12:39:38;3.40;;;2.10;;
75191;SDS011;63771;52.580;9.734;2024-02-21T12:42:03;5.80;;;2.35;;
75191;SDS011;63771;52.580;9.734;2024-02-21T12:44:29;4.15;;;3.17;;
75191;SDS011;63771;52.580;9.734;2024-02-21T12:46:54;3.00;;;2.40;;
75191;SDS011;63771;52.580;9.734;2024-02-21T12:49:19;4.13;;;2.70;;
75191;SDS011;63771;52.580;9.734;2024-02-21T12:51:45;4.97;;;3.30;;
75191;SDS011;63771;52.580;9.734;2024-02-21T12:54:13;4.38;;;2.97;;
75191;SDS011;63771;52.580;9.734;2024-02-21T12:56:38;3.78;;;2.50;;
75191;SDS011;63771;52.580;9.734;2024-02-21T12:59:04;3.97;;;2.50;;
75191;SDS011;63771;52.580;9.734;2024-02-21T13:01:32;2.78;;;2.50;;
75191;SDS011;63771;52.580;9.734;2024-02-21T13:03:57;4.60;;;2.83;;
75191;SDS011;63771;52.580;9.734;2024-02-21T13:06:25;4.05;;;2.78;;
75191;SDS011;63771;52.580;9.734;2024-02-21T13:08:51;4.00;;;2.90;;
75191;SDS011;63771;52.580;9.734;2024-02-21T13:11:16;3.37;;;2.70;;
75191;SDS011;63771;52.580;9.734;2024-02-21T13:13:41;8.00;;;3.15;;
75191;SDS011;63771;52.580;9.734;2024-02-21T13:16:07;5.63;;;3.60;;
75191;SDS011;63771;52.580;9.734;2024-02-21T13:18:32;6.50;;;3.70;;
75191;SDS011;63771;52.580;9.734;2024-02-21T13:20:57;6.30;;;3.70;;
75191;SDS011;63771;52.580;9.734;2024-02-21T13:23:23;6.05;;;4.35;;
75191;SDS011;63771;52.580;9.734;2024-02-21T13:25:48;8.50;;;3.73;;
75191;SDS011;63771;52.580;9.734;2024-02-21T13:28:14;7.20;;;4.15;;
75191;SDS011;63771;52.580;9.734;2024-02-21T13:30:41;3.75;;;3.33;;
75191;SDS011;63771;52.580;9.734;2024-02-21T13:33:06;10.68;;;5.03;;
75191;SDS011;63771;52.580;9.734;2024-02-21T13:35:32;10.50;;;5.03;;
75191;SDS011;63771;52.580;9.734;2024-02-21T13:37:57;5.47;;;3.90;;
75191;SDS011;63771;52.580;9.734;2024-02-21T13:40:23;7.67;;;4.53;;
75191;SDS011;63771;52.580;9.734;2024-02-21T13:42:48;7.77;;;4.13;;
75191;SDS011;63771;52.580;9.734;2024-02-21T13:45:16;6.10;;;4.15;;
75191;SDS011;63771;52.580;9.734;2024-02-21T13:47:41;6.60;;;3.83;;
75191;SDS011;63771;52.580;9.734;2024-02-21T13:50:07;9.13;;;4.93;;
75191;SDS011;63771;52.580;9.734;2024-02-21T13:52:39;6.35;;;3.85;;
75191;SDS011;63771;52.580;9.734;2024-02-21T13:55:08;8.18;;;4.18;;
75191;SDS011;63771;52.580;9.734;2024-02-21T13:57:34;7.38;;;4.57;;
75191;SDS011;63771;52.580;9.734;2024-02-21T14:00:00;6.82;;;4.47;;
75191;SDS011;63771;52.580;9.734;2024-02-21T14:02:25;7.33;;;4.47;;
75191;SDS011;63771;52.580;9.734;2024-02-21T14:04:50;10.33;;;4.60;;
75191;SDS011;63771;52.580;9.734;2024-02-21T14:07:16;7.50;;;5.40;;
75191;SDS011;63771;52.580;9.734;2024-02-21T14:09:42;8.55;;;5.07;;
75191;SDS011;63771;52.580;9.734;2024-02-21T14:12:07;5.88;;;4.72;;
75191;SDS011;63771;52.580;9.734;2024-02-21T14:14:34;10.37;;;5.03;;
75191;SDS011;63771;52.580;9.734;2024-02-21T14:17:00;8.65;;;4.75;;
75191;SDS011;63771;52.580;9.734;2024-02-21T14:19:26;7.32;;;3.60;;
75191;SDS011;63771;52.580;9.734;2024-02-21T14:21:51;6.50;;;3.37;;
75191;SDS011;63771;52.580;9.734;2024-02-21T14:24:17;11.05;;;4.53;;
75191;SDS011;63771;52.580;9.734;2024-02-21T14:26:43;5.43;;;3.93;;
75191;SDS011;63771;52.580;9.734;2024-02-21T14:29:08;5.43;;;3.70;;
75191;SDS011;63771;52.580;9.734;2024-02-21T14:31:33;5.77;;;3.50;;
75191;SDS011;63771;52.580;9.734;2024-02-21T14:33:59;7.80;;;4.45;;
75191;SDS011;63771;52.580;9.734;2024-02-21T14:36:26;5.80;;;4.18;;